x

Santa Maria - 21nm Nw Of Point Arguello, Ca (46011) Wave Buoy

1:50pm - Sat 26th May 2018 All times are PDT. -7 hours from GMT.

  • Sig Wave height 6.9ft
  • Swell Direction
  • Peak Period 7s
  • Average Period 6s
  • Wind
    25mph, 29mph gusts
  • Sea Temp 54°f
  • Air Temp 55°f
  • Sea Pressure 1018.6mb
  • Santa Maria - 21nm Nw Of Point Arguello, Ca
  • Santa Maria - 21nm Nw Of Point Arguello, Ca

More Historic Weather Station data

Upgrade to MSW Pro to gain access to the past 30 days of data for over 8000 Wavebouys and Weather Stations around the globe.

Join

Comparision Forecast

View Surf forecast
   
Sat 05/26 1:50pm 7ft 7s 6s 25 29 mph 1018.6mb 54f 55f
12:50pm 6.5ft 11s 6s 22 27 mph 1018.9mb 54f 55f
11:50am 7ft 11s 6s 20 25 mph 1019mb 54f 55f
10:50am 6.5ft 10s 5s 22 27 mph 1019mb 54f 55f
9:50am 5.5ft 11s 6s 22 27 mph 1019.1mb 54f 55f
8:50am 5.5ft 12s 6s 20 22 mph 1019mb 54f 55f
7:50am 5ft 11s 7s 18 22 mph 1018.9mb 54f 54f
6:50am 5ft 13s 7s 11 13 mph 1018.4mb 54f 56f
5:50am 4.5ft 10s 7s 13 18 mph 1018mb 55f 55f
4:50am 5ft 13s 7s 13 16 mph 1018.1mb 55f 56f
3:50am 5ft 11s 8s 13 18 mph 1018.2mb 55f 55f
2:50am 4.5ft 11s 8s 9 11 mph 1018.5mb 55f 56f
1:50am 4.5ft 11s 8s 11 13 mph 1019mb 55f 56f
12:50am 5ft 13s 9s 9 13 mph 1019.5mb 55f 56f
Fri 05/25 11:50pm 5ft 11s 9s 9 9 mph 1019.6mb 55f 56f
10:50pm 5ft 14s 9s 11 13 mph 1019.7mb 55f 56f
9:50pm 5.5ft 11s 9s 11 11 mph 1019.8mb 55f 57f
8:50pm 5ft 14s 8s 11 13 mph 1019.7mb 56f 57f
7:50pm 5ft 11s 9s 13 16 mph 1019.3mb 56f 57f
6:50pm 5ft 14s 9s 13 16 mph 1019.6mb 57f 57f
5:50pm 5ft 14s 10s 9 11 mph 1020mb 57f 58f
4:50pm 4.5ft 14s 10s 9 11 mph 1020.3mb 57f 58f
3:50pm 5ft 15s 10s 7 9 mph 1020.7mb 57f 57f
2:50pm 4.5ft 14s 10s 7 7 mph 1021.3mb 58f 57f
1:50pm 4ft 15s 10s 4 7 mph 1021.5mb 58f 57f
12:50pm 5ft 13s 10s 2 2 mph 1021.4mb 58f 56f
5:50am 5ft 14s 10s 2 4 mph 1018.9mb 56f 54f
4:50am 5ft 15s 10s 7 9 mph 1019.1mb 56f 55f
3:50am 5.5ft 13s 10s 4 7 mph 1019.3mb 56f 55f
2:50am 5ft 15s 10s 2 4 mph 1019.3mb 56f 55f
1:50am 5ft 11s 10s 7 9 mph 1019.2mb 56f 55f
12:50am 5.5ft 12s 10s 4 7 mph 1019.4mb 56f 55f
Thu 05/24 11:50pm 5.5ft 14s 10s 4 4 mph 1019.5mb 56f 55f
10:50pm 5.5ft 12s 10s 4 7 mph 1019.5mb 56f 56f
9:50pm 5ft 15s 10s  -  2 mph 1019.3mb 57f 56f
8:50pm 5.5ft 12s 10s 2 4 mph 1019.1mb 57f 56f
7:50pm 6ft 15s 10s 2 4 mph 1018.8mb 57f 56f
6:50pm 5.5ft 11s 10s 4 4 mph 1018.7mb 57f 56f
5:50pm 5ft 12s 10s 7 7 mph 1018.7mb 58f 56f
4:50pm 5.5ft 12s 10s 2 2 mph 1018.6mb 58f 56f
3:50pm 5ft 13s 10s  -  2 mph 1019.2mb 57f 55f
2:50pm 5.5ft 12s 10s 2 4 mph 1019.6mb 57f 55f
10:50am 5ft 16s 10s 2 4 mph 1018.7mb 55f 54f
8:50am 5ft 13s 10s 2 4 mph 1018.5mb 55f 54f
7:50am 5ft 16s 10s  -  2 mph 1017.9mb 55f 55f
6:50am 4.5ft 14s 10s 2 4 mph 1017.7mb 55f 55f
5:50am 4.5ft 16s 10s 2 4 mph 1017.1mb 55f 54f
4:50am 5ft 15s 10s 4 7 mph 1016.8mb 54f 54f
3:50am 4ft 16s 9s 7 7 mph 1016.6mb 54f 55f
2:50am 4.5ft 15s 9s 4 7 mph 1016.7mb 54f 55f
1:50am 4.5ft 16s 9s 4 7 mph 1016.8mb 55f 55f
12:50am 4.5ft 16s 9s 7 9 mph 1016.8mb 55f 55f
Wed 05/23 11:50pm 4.5ft 15s 9s 4 7 mph 1016.9mb 55f 55f
10:50pm 5ft 16s 9s 7 9 mph 1016.8mb 55f 55f
9:50pm 4.5ft 16s 9s 9 11 mph 1016.6mb 55f 56f
8:50pm 4.5ft 16s 9s 9 11 mph 1016.1mb 55f 56f
7:50pm 4.5ft 17s 9s 9 11 mph 1015.6mb 55f 56f
6:50pm 4ft 17s 8s 9 11 mph 1015.2mb 55f 56f
5:50pm 4.5ft 17s 9s 9 9 mph 1015.1mb 55f 56f
4:50pm 5ft 16s 9s 9 9 mph 1015.1mb 56f 56f
3:50pm 4.5ft 17s 9s 9 11 mph 1015.4mb 55f 56f
2:50pm 4.5ft 16s 9s 11 13 mph 1015.9mb 56f 56f
1:50pm 5ft 16s 10s 7 9 mph 1016.3mb 57f 55f
12:50pm 4.5ft 16s 9s 4 7 mph 1016.3mb 58f 55f
11:50am 5ft 16s 9s 4 4 mph 1016.7mb 57f 54f
10:50am 5ft 17s 9s 2 4 mph 1016.2mb 56f 54f
9:50am 4.5ft 16s 8s 4 7 mph 1016.1mb 56f 53f
8:50am 5.5ft 16s 9s 2 4 mph 1015.7mb 55f 53f
7:50am 5ft 17s 8s 2 4 mph 1015.4mb 55f 52f
6:50am 5ft 17s 8s 4 7 mph 1014.8mb 55f 52f
5:50am 5ft 17s 8s 2 4 mph 1014.2mb 54f 53f
4:50am 5ft 16s 8s 4 7 mph 1014.1mb 54f 52f
3:50am 5ft 17s 8s 7 9 mph 1013.9mb 54f 53f
2:50am 5ft 17s 8s 9 11 mph 1013.8mb 54f 53f
1:50am 5ft 17s 8s 7 9 mph 1014.1mb 54f 53f
12:50am 5ft 17s 8s 9 11 mph 1014.2mb 54f 53f
Tue 05/22 11:50pm 5.5ft 17s 8s 11 11 mph 1014.2mb 54f 54f
10:50pm 5.5ft 17s 8s 11 13 mph 1014.3mb 54f 53f
9:50pm 5ft 17s 8s 11 13 mph 1014.2mb 54f 54f